Flight Track Log - Related Links

Times and Time Zones

All times are in EDT time to prevent confusion due to time zone crossing. See the RPA3443 flight status page for this flight to view local times or setup timezone preferences in your user account.

Time Position Orientation Groundspeed Altitude Reporting Facility
EDT Latitude Longitude Course Direction KTS MPH feet Rate Location/Type
Sun 12:09:21 PM 42.7694 -73.8089 300° West 145 167 1,400  Level Boston Center
Sun 12:14:38 PM 42.9186 -74.1694 210° Southwest 261 300 14,300 2,292 Climbing Boston Center
Sun 12:15:38 PM 42.8450 -74.2269 188° South 312 359 15,800 1,950 Climbing Boston Center
Sun 12:16:38 PM 42.7319 -74.2492 154° Southeast 349 402 18,200 2,250 Climbing Boston Center
Sun 12:17:38 PM 42.6369 -74.1869 154° Southeast 365 420 20,300 2,000 Climbing Boston Center
Sun 12:18:38 PM 42.5297 -74.1164 154° Southeast 398 458 22,200 1,900 Climbing Boston Center
Sun 12:19:38 PM 42.4161 -74.0403 152° Southeast 424 488 24,100 1,500 Climbing Boston Center
Sun 12:20:38 PM 42.3006 -73.9586 154° Southeast 455 524 25,200 1,350 Climbing Boston Center
Sun 12:21:38 PM 42.1786 -73.8772 153° Southeast 476 548 26,800 1,400 Climbing Boston Center
Sun 12:22:38 PM 42.0547 -73.7933 154° Southeast 494 568 28,000 600 Climbing Boston Center
Sun 12:23:38 PM 41.9264 -73.7097 156° South 506 582 28,000  Level Boston Center
Sun 12:24:38 PM 41.7981 -73.6347 188° South 506 582 28,000  Level Boston Center
Sun 12:25:38 PM 41.6706 -73.6600 213° Southwest 470 541 28,000  Level Boston Center
Sun 12:27:11 PM 41.5186 -73.7939 213° Southwest 431 496 28,000  Level New York Center
Sun 12:28:11 PM 41.4142 -73.8833 212° Southwest 441 507 28,000  Level New York Center
Sun 12:29:12 PM 41.3100 -73.9694 212° Southwest 447 514 28,000  Level New York Center
Sun 12:30:12 PM 41.2075 -74.0558 212° Southwest 447 514 28,000  Level New York Center
Sun 12:31:10 PM 41.1008 -74.1442 212° Southwest 447 514 28,000 -50 Level New York Center
Sun 12:32:11 PM 40.9900 -74.2347 213° Southwest 441 507 27,900  Descending New York Center
Sun 12:33:11 PM 40.8939 -74.3178 212° Southwest 430 495 28,000 50 Climbing New York Center
Sun 12:34:11 PM 40.7997 -74.3950 229° Southwest 419 482 28,000  Level New York Center
Sun 12:35:12 PM 40.7297 -74.5008 231° Southwest 399 459 28,000  Level New York Center
Sun 12:36:10 PM 40.6639 -74.6094 231° Southwest 388 447 28,000 -403 Level New York Center
Sun 12:37:11 PM 40.6000 -74.7150 229° Southwest 383 441 27,200 -836 Descending New York Center
Sun 12:38:12 PM 40.5297 -74.8203 226° Southwest 383 441 26,300 -958 Descending New York Center
Sun 12:39:10 PM 40.4553 -74.9222 227° Southwest 396 456 25,300 -864 Descending New York Center
Sun 12:40:10 PM 40.4025 -74.9956 227° Southwest 396 456 24,600 -645 Descending New York Center
Sun 12:41:11 PM 40.3103 -75.1258 228° Southwest 391 450 24,000 -595 Descending New York Center
Sun 12:42:11 PM 40.2378 -75.2300 227° Southwest 385 443 23,400 -1,008 Descending New York Center
Sun 12:43:10 PM 40.1672 -75.3289 228° Southwest 380 437 22,000 -706 Descending New York Center
Sun 12:44:10 PM 40.0967 -75.4300 226° Southwest 380 437 22,000  Level New York Center
Sun 12:45:10 PM 40.0325 -75.5178 227° Southwest 380 437 22,000  Level New York Center
Sun 12:46:11 PM 39.9619 -75.6161 233° Southwest 380 437 22,000  Level New York Center
Sun 12:47:11 PM 39.8992 -75.7228 228° Southwest 380 437 22,000  Level New York Center
Sun 12:48:12 PM 39.8303 -75.8231 230° Southwest 375 432 22,000 -446 Level New York Center
Sun 12:49:12 PM 39.7564 -75.9394 229° Southwest 375 432 21,100 -1,525 Descending New York Center
Sun 12:50:10 PM 39.6917 -76.0372 231° Southwest 375 432 19,000 -1,831 Descending New York Center
Sun 12:51:10 PM 39.6308 -76.1350 232° Southwest 361 415 17,500 -1,736 Descending New York Center
Sun 12:52:11 PM 39.5744 -76.2278 230° Southwest 345 397 15,500 -1,903 Descending New York Center
Sun 12:53:35 PM 39.4833 -76.3667 226° Southwest 333 383 12,900 -1,522 Descending Potomac TRACON
Sun 12:54:29 PM 39.4333 -76.4333 212° Southwest 323 372 12,000 -474 Descending Potomac TRACON
Sun 12:55:29 PM 39.3500 -76.5000 218° Southwest 328 377 12,000 -368 Level Potomac TRACON
Sun 12:56:23 PM 39.2833 -76.5667 218° Southwest 329 379 11,300 -1,000 Descending Potomac TRACON
Sun 12:57:23 PM 39.2167 -76.6333 210° Southwest 325 374 10,100 -645 Descending Potomac TRACON
Sun 12:58:24 PM 39.1500 -76.6833 218° Southwest 292 336 10,000 -50 Descending Potomac TRACON
Sun 12:59:24 PM 39.0833 -76.7500 226° Southwest 245 282 10,000 -250 Level Potomac TRACON
Sun 01:00:24 PM 39.0333 -76.8167 229° Southwest 244 281 9,500 -789 Descending Potomac TRACON
Sun 01:01:18 PM 39.0000 -76.8667 218° Southwest 241 277 8,500 -1,252 Descending Potomac TRACON
Sun 01:02:19 PM 38.9500 -76.9167 201° Southwest 239 275 7,100 -1,240 Descending Potomac TRACON
Sun 01:03:19 PM 38.8833 -76.9500 201° Southwest 231 266 6,000 -1,100 Descending Potomac TRACON

Login

Don't have an account? Register now (free) for customized features, flight alerts, and more!